Time;durP1;ratioP1;P1;durP2;ratioP2;P2;SDS_P1;SDS_P2;PMS_P1;PMS_P2;Temp;Humidity;BMP_temperature;BMP_pressure;BME280_temperature;BME280_humidity;BME280_pressure;Samples;Min_cycle;Max_cycle;Signal;HPM_P1;HPM_P2
2021/03/08 00:00:25;;;;;;;163.60;67.07;;;;;;;2.85;53.29;95062.69;4935171;29;20048;-80
2021/03/08 00:02:51;;;;;;;138.60;60.28;;;;;;;2.72;53.51;95050.47;4932906;29;20040;-80
2021/03/08 00:05:17;;;;;;;123.20;59.17;;;;;;;2.72;53.42;95057.38;4894045;29;20039;-81
2021/03/08 00:07:44;;;;;;;115.10;56.58;;;;;;;2.62;54.55;95060.22;4924305;29;20248;-80
2021/03/08 00:10:10;;;;;;;112.82;53.60;;;;;;;2.60;53.85;95056.22;4925257;29;20082;-80
2021/03/08 00:12:35;;;;;;;130.48;59.75;;;;;;;2.55;54.63;95056.75;4926231;29;20111;-80
2021/03/08 00:15:01;;;;;;;120.82;57.17;;;;;;;2.54;54.17;95051.78;4894390;29;20531;-80
2021/03/08 00:17:26;;;;;;;118.72;57.05;;;;;;;2.51;54.71;95050.38;4895931;29;20032;-80
2021/03/08 00:19:52;;;;;;;123.32;59.33;;;;;;;2.45;54.48;95056.22;4930676;29;20039;-79
2021/03/08 00:22:17;;;;;;;132.82;62.08;;;;;;;2.42;54.37;95049.66;4927664;29;20048;-80
2021/03/08 00:24:43;;;;;;;121.40;64.72;;;;;;;2.41;54.77;95042.94;4902908;29;20063;-80
2021/03/08 00:27:09;;;;;;;135.52;73.97;;;;;;;2.31;54.44;95037.28;4906608;29;20039;-79
2021/03/08 00:29:35;;;;;;;130.82;68.32;;;;;;;2.29;55.17;95044.34;4974305;23;20469;-80
2021/03/08 00:32:00;;;;;;;118.75;61.65;;;;;;;2.30;55.09;95035.69;4918035;29;20047;-80
2021/03/08 00:34:26;;;;;;;105.43;53.10;;;;;;;2.33;54.78;95031.97;4916408;29;20028;-80
2021/03/08 00:36:51;;;;;;;96.78;53.78;;;;;;;2.37;54.46;95041.69;4922186;23;20046;-80
2021/03/08 00:39:17;;;;;;;104.60;52.17;;;;;;;2.29;54.54;95041.00;4937447;29;20031;-78
2021/03/08 00:41:42;;;;;;;92.32;46.47;;;;;;;2.38;54.91;95027.88;4937214;29;20100;-81
2021/03/08 00:44:08;;;;;;;99.72;47.60;;;;;;;2.41;54.99;95037.78;4938587;29;20032;-80
2021/03/08 00:46:35;;;;;;;85.72;48.10;;;;;;;2.24;54.89;95040.69;4933657;29;20062;-79
2021/03/08 00:49:00;;;;;;;79.90;44.00;;;;;;;2.21;55.46;95034.16;4933602;29;20484;-80
2021/03/08 00:51:26;;;;;;;86.00;45.30;;;;;;;2.17;55.21;95034.69;4950006;29;20094;-78
2021/03/08 00:53:51;;;;;;;91.22;46.47;;;;;;;2.24;55.64;95036.34;4932983;29;20039;-79
2021/03/08 00:56:16;;;;;;;83.60;44.70;;;;;;;2.29;55.60;95028.97;4937261;29;20039;-79
2021/03/08 00:58:42;;;;;;;93.10;49.03;;;;;;;2.20;55.43;95027.44;4942259;29;20042;-79
2021/03/08 01:01:07;;;;;;;110.93;55.80;;;;;;;2.19;55.45;95022.47;4950840;29;20034;-79
2021/03/08 01:03:33;;;;;;;112.88;58.08;;;;;;;2.13;55.93;95020.63;4935187;29;20087;-80
2021/03/08 01:05:58;;;;;;;102.95;57.25;;;;;;;2.17;55.68;95014.94;4935368;29;20047;-79
2021/03/08 01:08:24;;;;;;;109.60;58.30;;;;;;;2.14;55.08;95010.19;4935130;29;20029;-80
2021/03/08 01:10:49;;;;;;;166.50;79.43;;;;;;;2.21;55.02;95011.06;4950972;23;20063;-80
2021/03/08 01:13:14;;;;;;;175.55;81.72;;;;;;;2.27;54.88;95012.13;4927239;29;20389;-80
2021/03/08 01:15:40;;;;;;;174.52;84.53;;;;;;;2.13;55.97;95008.59;4951590;23;20519;-80
2021/03/08 01:18:05;;;;;;;195.15;90.40;;;;;;;2.20;55.28;94999.22;4958681;29;20031;-80
2021/03/08 01:20:31;;;;;;;166.70;77.50;;;;;;;2.15;55.79;95001.50;4958565;29;20032;-80
2021/03/08 01:22:56;;;;;;;166.65;78.75;;;;;;;2.08;55.43;95003.16;4940245;29;20518;-80
2021/03/08 01:25:24;;;;;;;145.13;68.75;;;;;;;2.06;55.24;94998.22;4906430;29;20027;-80
2021/03/08 01:27:49;;;;;;;163.88;74.72;;;;;;;2.09;55.41;94991.94;4905662;29;20039;-80
2021/03/08 01:30:17;;;;;;;160.52;91.75;;;;;;;2.01;55.41;94990.25;4937689;29;20027;-80
2021/03/08 01:32:43;;;;;;;207.80;118.78;;;;;;;1.90;55.78;94988.09;4922585;29;20043;-80
2021/03/08 01:35:08;;;;;;;300.40;148.05;;;;;;;1.96;56.36;94979.72;4921013;29;20027;-80
2021/03/08 01:40:01;;;;;;;184.30;87.55;;;;;;;2.03;55.57;94975.47;4943360;23;20064;-80
2021/03/08 01:42:26;;;;;;;251.25;129.07;;;;;;;2.07;55.95;94981.06;4927703;29;20020;-80
2021/03/08 01:44:51;;;;;;;251.23;115.95;;;;;;;2.07;56.00;94975.91;4928943;29;20518;-80
2021/03/08 01:47:17;;;;;;;164.02;79.53;;;;;;;1.97;57.19;94980.53;4896275;29;20070;-79
2021/03/08 01:49:42;;;;;;;94.90;47.55;;;;;;;2.14;56.86;94968.34;4928234;29;20040;-80
2021/03/08 01:52:09;;;;;;;93.22;50.15;;;;;;;2.19;56.32;94977.09;4929063;29;20038;-80
2021/03/08 01:54:35;;;;;;;98.07;50.30;;;;;;;2.21;56.57;94964.09;4927428;29;20437;-79
2021/03/08 01:57:00;;;;;;;98.00;48.80;;;;;;;2.18;57.05;94960.09;4928269;29;20044;-81
2021/03/08 01:59:26;;;;;;;102.70;53.22;;;;;;;2.20;56.93;94950.47;4927695;29;20036;-80
2021/03/08 02:01:51;;;;;;;114.30;57.45;;;;;;;2.25;56.58;94958.41;4920185;29;20052;-80
2021/03/08 02:04:17;;;;;;;117.82;59.35;;;;;;;2.35;55.74;94950.47;4925988;29;20436;-79
2021/03/08 02:06:42;;;;;;;129.00;63.85;;;;;;;2.39;55.46;94947.34;4927514;29;20044;-80
2021/03/08 02:09:08;;;;;;;132.75;62.78;;;;;;;2.47;55.05;94950.81;4891561;29;20047;-81
2021/03/08 02:11:34;;;;;;;111.82;55.47;;;;;;;2.30;56.22;94953.56;4914558;29;20040;-79
2021/03/08 02:14:42;;;;;;;113.63;52.38;;;;;;;2.31;56.38;94955.16;4995754;23;20063;-79
2021/03/08 02:17:10;;;;;;;114.35;54.22;;;;;;;2.39;55.79;94955.06;4945645;29;20047;-80
2021/03/08 02:20:13;;;;;;;119.72;52.45;;;;;;;2.42;55.98;94946.19;4955287;29;20122;-80
2021/03/08 02:22:59;;;;;;;112.00;53.20;;;;;;;2.32;55.65;94950.81;4966483;28;20035;-79
2021/03/08 02:25:33;;;;;;;122.72;57.50;;;;;;;2.40;55.83;94943.81;4956095;29;20035;-78
2021/03/08 02:28:09;;;;;;;118.57;58.22;;;;;;;2.25;55.50;94948.16;4975319;28;20054;-78
2021/03/08 02:30:53;;;;;;;134.73;63.33;;;;;;;2.13;55.85;94936.75;4975956;29;20039;-78
2021/03/08 02:33:24;;;;;;;160.50;76.32;;;;;;;2.13;56.21;94941.09;4959004;29;20062;-80
2021/03/08 02:38:29;;;;;;;181.02;85.20;;;;;;;2.14;56.45;94937.56;4817278;23;20040;-80
2021/03/08 02:43:34;;;;;;;160.40;79.60;;;;;;;2.07;56.01;94932.31;4995919;23;20114;-80
2021/03/08 02:46:02;;;;;;;187.05;89.22;;;;;;;2.03;55.93;94941.34;4956343;29;20160;-80
2021/03/08 02:48:28;;;;;;;218.98;103.97;;;;;;;2.02;55.68;94942.31;4940076;29;20043;-79
2021/03/08 02:50:54;;;;;;;251.32;112.35;;;;;;;1.98;55.96;94930.81;4940118;29;20036;-79
2021/03/08 02:53:19;;;;;;;256.75;111.97;;;;;;;1.92;56.42;94921.25;4956090;29;20644;-79
2021/03/08 02:55:51;;;;;;;218.10;104.03;;;;;;;1.97;56.52;94929.22;4938952;29;20053;-79
2021/03/08 02:58:17;;;;;;;165.70;81.18;;;;;;;1.99;56.19;94932.41;4924581;29;20118;-80
2021/03/08 03:00:42;;;;;;;153.35;76.43;;;;;;;1.93;56.27;94930.53;4939726;29;20047;-81
2021/03/08 03:03:08;;;;;;;161.40;78.65;;;;;;;1.91;56.36;94928.16;4955807;29;20031;-81
2021/03/08 03:05:35;;;;;;;167.68;86.00;;;;;;;1.98;56.31;94925.69;4940003;29;20038;-80
2021/03/08 03:08:02;;;;;;;245.73;106.45;;;;;;;1.88;56.17;94927.72;4931227;29;20098;-81
2021/03/08 03:10:28;;;;;;;220.98;97.22;;;;;;;1.83;56.52;94924.88;4948468;28;20035;-80
2021/03/08 03:12:55;;;;;;;197.05;89.22;;;;;;;1.82;56.64;94925.84;5017587;23;20052;-80
2021/03/08 03:15:21;;;;;;;177.30;84.90;;;;;;;1.81;57.12;94930.19;4925217;29;20043;-81
2021/03/08 03:17:46;;;;;;;164.02;78.85;;;;;;;1.79;56.53;94922.66;4901261;29;20036;-80
2021/03/08 03:20:13;;;;;;;156.52;78.05;;;;;;;1.74;57.19;94919.81;4932455;29;20040;-80
2021/03/08 03:22:39;;;;;;;162.55;75.20;;;;;;;1.70;56.25;94928.84;4915585;29;20032;-81
2021/03/08 03:25:05;;;;;;;136.02;65.07;;;;;;;1.66;56.42;94924.25;4883690;29;20028;-81
2021/03/08 03:27:31;;;;;;;128.65;62.80;;;;;;;1.58;56.89;94932.78;4899339;29;20032;-81
2021/03/08 03:29:56;;;;;;;116.50;59.97;;;;;;;1.65;56.59;94927.78;4899908;29;20036;-81
2021/03/08 03:32:22;;;;;;;120.53;60.08;;;;;;;1.64;56.37;94915.94;4882831;29;20035;-81
2021/03/08 03:34:47;;;;;;;148.05;75.28;;;;;;;1.52;56.54;94918.09;4916192;29;20398;-80
2021/03/08 03:37:19;;;;;;;227.55;97.82;;;;;;;1.57;56.73;94918.38;4916236;29;20044;-80
2021/03/08 03:39:44;;;;;;;254.77;116.32;;;;;;;1.58;57.06;94911.47;4919827;29;20031;-80
2021/03/08 03:42:10;;;;;;;313.35;140.93;;;;;;;1.56;57.13;94914.22;4917537;29;20036;-80
2021/03/08 03:44:36;;;;;;;283.00;136.52;;;;;;;1.57;57.48;94913.25;4883462;29;20066;-80
2021/03/08 03:47:02;;;;;;;251.25;117.05;;;;;;;1.52;57.69;94912.97;4898608;29;20035;-80
2021/03/08 03:49:27;;;;;;;235.57;124.50;;;;;;;1.45;57.31;94917.19;4917275;29;20522;-80
2021/03/08 03:51:53;;;;;;;290.25;167.68;;;;;;;1.43;57.15;94919.13;4916549;29;20040;-80
2021/03/08 03:54:18;;;;;;;274.77;164.55;;;;;;;1.42;57.21;94923.44;4901714;29;20099;-79
2021/03/08 03:56:47;;;;;;;255.35;140.95;;;;;;;1.33;56.76;94918.59;4901017;29;20055;-80
2021/03/08 03:59:28;;;;;;;230.43;130.90;;;;;;;1.38;57.42;94921.41;4915874;29;20465;-80
2021/03/08 04:02:04;;;;;;;217.23;122.28;;;;;;;1.42;57.51;94927.78;4900883;29;20514;-80
2021/03/08 04:04:49;;;;;;;225.13;122.13;;;;;;;1.40;57.22;94924.59;4916146;29;20036;-80
2021/03/08 04:09:45;;;;;;;163.20;89.40;;;;;;;1.42;57.38;94913.22;4954828;29;20059;-80
2021/03/08 04:12:10;;;;;;;179.88;96.63;;;;;;;1.35;57.65;94916.66;4967587;23;20167;-81
2021/03/08 04:14:36;;;;;;;184.25;93.72;;;;;;;1.40;57.43;94914.34;4940006;29;20078;-80
2021/03/08 04:17:01;;;;;;;177.48;99.75;;;;;;;1.35;57.29;94911.53;4921984;29;20211;-80
2021/03/08 04:19:29;;;;;;;191.93;100.88;;;;;;;1.38;57.34;94921.41;4911232;29;20439;-80
2021/03/08 04:21:59;;;;;;;159.95;80.47;;;;;;;1.40;56.81;94929.72;4957907;23;20034;-79
2021/03/08 04:26:50;;;;;;;144.32;74.25;;;;;;;1.28;57.43;94920.84;4957738;23;20056;-79
2021/03/08 04:29:17;;;;;;;126.15;71.07;;;;;;;1.29;57.36;94920.66;4935823;29;20063;-80
2021/03/08 04:31:42;;;;;;;125.65;66.20;;;;;;;1.38;58.27;94922.22;4919600;29;20416;-79
2021/03/08 04:34:08;;;;;;;118.07;62.10;;;;;;;1.41;57.80;94921.06;4918238;29;20039;-81
2021/03/08 04:36:33;;;;;;;138.00;61.85;;;;;;;1.35;57.00;94916.66;4902148;29;20043;-82
2021/03/08 04:38:59;;;;;;;97.28;51.85;;;;;;;1.33;57.88;94923.72;4918969;29;20492;-80
2021/03/08 04:41:28;;;;;;;85.93;45.78;;;;;;;1.46;58.23;94923.91;4902108;29;20060;-80
2021/03/08 04:43:54;;;;;;;89.00;47.88;;;;;;;1.32;57.75;94917.00;5018689;23;20062;-81
2021/03/08 04:46:20;;;;;;;104.40;47.95;;;;;;;1.33;57.63;94923.72;4957450;29;20035;-80
2021/03/08 04:48:55;;;;;;;;;;;;;;;;;;;;;
2021/03/08 04:51:21;;;;;;;66.85;35.83;;;;;;;1.51;57.95;94931.88;4930131;29;20023;-80
2021/03/08 04:53:52;;;;;;;75.55;39.60;;;;;;;1.56;57.40;94927.03;4927242;29;20361;-80
2021/03/08 04:56:35;;;;;;;87.33;41.73;;;;;;;1.47;56.97;94930.66;4928326;29;20051;-80
2021/03/08 04:59:01;;;;;;;81.00;41.08;;;;;;;1.41;56.61;94931.31;4942173;29;20166;-80
2021/03/08 05:01:33;;;;;;;81.35;42.33;;;;;;;1.37;57.33;94936.00;4943584;29;20027;-81
2021/03/08 05:03:59;;;;;;;89.30;50.10;;;;;;;1.52;57.60;94932.69;4957271;23;20615;-80
2021/03/08 05:08:55;;;;;;;111.63;56.33;;;;;;;1.57;57.53;94941.44;4907848;29;20072;-80
2021/03/08 05:11:20;;;;;;;116.90;67.10;;;;;;;1.71;56.47;94932.97;4895371;29;20036;-81
2021/03/08 05:13:47;;;;;;;160.25;78.30;;;;;;;1.86;56.50;94935.56;4862454;29;20488;-81
2021/03/08 05:16:13;;;;;;;99.15;52.38;;;;;;;2.20;54.63;94926.56;4896091;29;20091;-82
2021/03/08 05:18:38;;;;;;;158.07;81.28;;;;;;;2.45;54.41;94924.53;4878562;29;20076;-81
2021/03/08 05:21:04;;;;;;;206.35;101.50;;;;;;;2.57;54.69;94933.34;4913004;29;20040;-82
2021/03/08 05:23:30;;;;;;;264.30;131.07;;;;;;;2.61;55.03;94932.03;4885066;29;20036;-81
2021/03/08 05:25:56;;;;;;;98.43;52.10;;;;;;;3.01;52.14;94923.78;4864401;29;20108;-82
2021/03/08 05:28:21;;;;;;;116.20;55.42;;;;;;;3.25;51.87;94921.84;4880941;29;20040;-82
2021/03/08 05:30:47;;;;;;;85.28;40.45;;;;;;;3.51;50.72;94919.50;4878617;29;20036;-82
2021/03/08 05:33:18;;;;;;;73.45;39.67;;;;;;;3.76;50.46;94913.97;4878445;29;20107;-82
2021/03/08 05:35:43;;;;;;;75.50;40.10;;;;;;;3.98;49.59;94918.06;4878829;29;20575;-81
2021/03/08 05:38:08;;;;;;;59.05;35.72;;;;;;;4.17;49.12;94909.69;4888925;29;20032;-80
2021/03/08 05:40:42;;;;;;;57.65;32.67;;;;;;;4.44;48.53;94909.81;4912397;29;20063;-85
2021/03/08 05:43:12;;;;;;;65.22;36.08;;;;;;;4.63;47.80;94916.84;4990639;23;20051;-81
2021/03/08 05:46:00;;;;;;;111.10;52.78;;;;;;;4.88;47.45;94916.31;4924664;29;20054;-80
2021/03/08 05:48:52;;;;;;;88.93;45.90;;;;;;;5.13;47.45;94918.19;4907996;29;20043;-79
2021/03/08 05:51:55;;;;;;;67.07;33.30;;;;;;;5.48;46.35;94925.75;4901190;29;20580;-82
2021/03/08 05:54:56;;;;;;;57.60;32.05;;;;;;;5.75;45.42;94924.00;4912737;29;20059;-82
2021/03/08 05:57:41;;;;;;;56.03;29.77;;;;;;;6.00;45.10;94925.00;4929332;29;20440;-81
2021/03/08 06:00:26;;;;;;;65.10;29.42;;;;;;;6.29;44.25;94928.13;4907292;29;20040;-81
2021/03/08 06:03:01;;;;;;;48.97;27.88;;;;;;;6.45;42.91;94922.53;4907976;29;20028;-82
2021/03/08 06:06:03;;;;;;;45.40;26.90;;;;;;;6.58;43.10;94917.31;4910706;29;20045;-82
2021/03/08 06:08:39;;;;;;;43.90;25.08;;;;;;;6.68;42.33;94926.44;4910890;29;20043;-78
2021/03/08 06:11:18;;;;;;;51.72;25.20;;;;;;;6.86;42.43;94926.56;4900339;29;20512;-79
2021/03/08 06:13:51;;;;;;;49.13;26.80;;;;;;;7.11;42.04;94931.81;4894202;29;20043;-81
2021/03/08 06:16:27;;;;;;;53.47;27.83;;;;;;;7.35;41.38;94938.06;4902264;29;20048;-81
2021/03/08 06:18:53;;;;;;;53.70;28.42;;;;;;;7.71;40.88;94943.38;4896273;29;20375;-81
2021/03/08 06:21:18;;;;;;;59.25;29.23;;;;;;;7.98;40.50;94948.38;4877492;29;20047;-79
2021/03/08 06:23:44;;;;;;;72.57;32.67;;;;;;;8.15;40.36;94938.25;5009250;23;20103;-81
2021/03/08 06:26:13;;;;;;;50.72;31.10;;;;;;;8.37;39.50;94937.66;4958311;29;20174;-81
2021/03/08 06:28:39;;;;;;;57.70;31.35;;;;;;;8.69;39.00;94934.94;4957573;29;20043;-82
2021/03/08 06:31:24;;;;;;;72.82;33.78;;;;;;;8.92;37.50;94935.06;4909528;29;20419;-82
2021/03/08 06:33:49;;;;;;;73.43;36.42;;;;;;;9.03;38.42;94938.72;4958236;29;20562;-80
2021/03/08 06:36:15;;;;;;;70.25;35.67;;;;;;;9.17;37.48;94934.97;4944973;29;20043;-80
2021/03/08 06:38:40;;;;;;;64.72;37.28;;;;;;;9.27;37.50;94937.84;4923102;29;20035;-80
2021/03/08 06:41:09;;;;;;;79.28;39.63;;;;;;;9.42;37.03;94934.81;4954698;29;20503;-79
2021/03/08 06:43:35;;;;;;;76.22;39.17;;;;;;;9.43;37.10;94931.19;4920952;29;20055;-79
2021/03/08 06:46:00;;;;;;;69.40;39.15;;;;;;;9.60;36.64;94924.38;4906646;29;20039;-81
2021/03/08 06:48:26;;;;;;;72.72;39.50;;;;;;;9.66;35.94;94924.50;4923986;29;20082;-82
2021/03/08 06:51:22;;;;;;;92.88;40.65;;;;;;;9.58;36.06;94923.78;4955984;29;20035;-87
2021/03/08 06:53:48;;;;;;;73.82;39.38;;;;;;;9.73;36.35;94928.56;4923504;29;20050;-81
2021/03/08 06:56:29;;;;;;;68.30;41.28;;;;;;;9.68;36.09;94933.66;4954951;29;20423;-80
2021/03/08 06:59:18;;;;;;;85.25;43.45;;;;;;;9.51;35.92;94923.13;4907823;29;20052;-82
2021/03/08 07:02:06;;;;;;;78.55;43.38;;;;;;;9.42;36.06;94929.63;4906442;29;20092;-82
2021/03/08 07:04:32;;;;;;;84.43;42.88;;;;;;;9.43;36.08;94931.19;4889675;29;20657;-82
2021/03/08 07:07:01;;;;;;;87.55;43.30;;;;;;;9.56;36.08;94930.22;4895454;29;20048;-82
2021/03/08 07:09:27;;;;;;;84.40;43.63;;;;;;;9.58;36.33;94928.97;4907966;29;20097;-81
2021/03/08 07:12:08;;;;;;;81.38;43.45;;;;;;;9.66;36.52;94934.88;4895837;29;20540;-81
2021/03/08 07:14:43;;;;;;;87.28;43.25;;;;;;;9.88;36.09;94930.75;4905636;29;20063;-81
2021/03/08 07:17:30;;;;;;;84.75;41.63;;;;;;;10.00;34.89;94926.34;4905393;29;20359;-81
2021/03/08 07:19:56;;;;;;;76.90;40.13;;;;;;;10.03;35.24;94928.50;4906768;29;20073;-82
2021/03/08 07:22:37;;;;;;;86.97;43.33;;;;;;;10.12;35.50;94926.38;4890934;29;20476;-82
2021/03/08 07:25:07;;;;;;;68.32;38.70;;;;;;;10.17;35.29;94924.66;4888831;29;20536;-79
2021/03/08 07:27:46;;;;;;;67.47;37.38;;;;;;;9.98;35.49;94909.41;4989676;23;20052;-82
2021/03/08 07:30:15;;;;;;;57.58;35.22;;;;;;;10.10;35.13;94920.63;4892664;29;20175;-80
2021/03/08 07:32:50;;;;;;;57.13;32.72;;;;;;;10.34;34.66;94917.00;4917554;29;20397;-81
2021/03/08 07:35:16;;;;;;;52.65;32.17;;;;;;;10.44;34.39;94921.66;4885264;29;20036;-81
2021/03/08 07:37:46;;;;;;;68.30;31.13;;;;;;;10.59;35.18;94921.97;4900030;29;20050;-81
2021/03/08 07:40:22;;;;;;;61.33;32.20;;;;;;;10.77;34.05;94914.00;4900762;29;20040;-81
2021/03/08 07:42:47;;;;;;;50.53;31.02;;;;;;;10.95;34.28;94918.25;4915434;29;20047;-80
2021/03/08 07:45:13;;;;;;;57.08;32.28;;;;;;;11.19;34.35;94918.97;4884635;29;20028;-81
2021/03/08 07:47:39;;;;;;;62.47;33.10;;;;;;;11.26;33.64;94913.63;4885158;29;20056;-80
2021/03/08 07:50:24;;;;;;;58.20;32.97;;;;;;;11.22;33.96;94917.69;4898959;29;20393;-82
2021/03/08 07:52:49;;;;;;;55.58;30.25;;;;;;;11.26;34.03;94911.81;4900500;29;20121;-81
2021/03/08 07:55:15;;;;;;;62.40;32.95;;;;;;;11.44;33.69;94916.03;4915708;29;20036;-80
2021/03/08 07:57:40;;;;;;;55.55;33.13;;;;;;;11.57;32.79;94909.75;4883275;29;20488;-79
2021/03/08 08:00:07;;;;;;;54.92;32.30;;;;;;;11.64;32.87;94897.34;4911595;29;20032;-80
2021/03/08 08:02:32;;;;;;;55.75;32.38;;;;;;;11.76;32.98;94903.28;4907991;29;20048;-80
2021/03/08 08:04:58;;;;;;;63.72;35.75;;;;;;;11.67;32.93;94899.47;4896862;29;20071;-79
2021/03/08 08:07:23;;;;;;;61.38;36.55;;;;;;;11.57;32.50;94889.69;4891147;29;20032;-80
2021/03/08 08:09:49;;;;;;;55.65;35.00;;;;;;;11.51;33.26;94889.84;4913900;29;20505;-79
2021/03/08 08:12:18;;;;;;;68.15;36.53;;;;;;;11.35;33.16;94892.19;4883862;29;20038;-80
2021/03/08 08:14:44;;;;;;;66.82;37.50;;;;;;;11.32;33.18;94900.47;4899245;29;20512;-80
2021/03/08 08:17:13;;;;;;;61.20;35.03;;;;;;;11.39;33.78;94893.31;4899666;29;20039;-80
2021/03/08 08:19:39;;;;;;;61.75;35.90;;;;;;;11.34;33.61;94901.00;4899659;29;20090;-80
2021/03/08 08:22:06;;;;;;;61.38;34.90;;;;;;;11.40;33.13;94894.09;4884186;29;20043;-81
2021/03/08 08:24:31;;;;;;;65.20;36.47;;;;;;;11.48;33.76;94879.88;4899465;29;20039;-81
2021/03/08 08:26:57;;;;;;;60.83;35.08;;;;;;;11.58;33.44;94887.88;4899710;29;20453;-81
2021/03/08 08:29:23;;;;;;;55.63;35.28;;;;;;;11.64;33.45;94887.72;4882845;29;20035;-79
2021/03/08 08:32:05;;;;;;;60.63;34.72;;;;;;;11.70;33.51;94883.38;4884591;29;20130;-79
2021/03/08 08:34:40;;;;;;;63.70;36.72;;;;;;;11.77;33.22;94878.81;4891008;29;20091;-80
2021/03/08 08:37:14;;;;;;;72.50;36.92;;;;;;;11.83;33.49;94872.66;4873472;29;20068;-79
2021/03/08 08:39:40;;;;;;;57.22;35.47;;;;;;;11.96;33.03;94874.16;4958461;23;20052;-78
2021/03/08 08:44:59;;;;;;;55.88;35.92;;;;;;;11.82;33.30;94857.28;5031393;23;20052;-82
2021/03/08 08:47:31;;;;;;;59.58;37.03;;;;;;;11.94;33.09;94869.19;4894484;29;20035;-83
2021/03/08 08:50:03;;;;;;;58.17;35.95;;;;;;;11.96;33.55;94861.13;4911892;29;20036;-83
2021/03/08 08:52:42;;;;;;;71.13;37.42;;;;;;;12.02;32.74;94876.59;4894807;29;20563;-83
2021/03/08 08:55:08;;;;;;;64.88;37.13;;;;;;;11.98;33.06;94875.50;4909779;29;20088;-81
2021/03/08 08:57:33;;;;;;;67.85;37.30;;;;;;;12.09;32.98;94862.63;4879051;29;20416;-78
2021/03/08 09:00:20;;;;;;;68.97;36.35;;;;;;;12.05;33.13;94864.16;4924548;29;20036;-81
2021/03/08 09:02:48;;;;;;;66.35;37.75;;;;;;;12.07;32.95;94854.25;4877541;29;20546;-80
2021/03/08 09:05:29;;;;;;;62.92;37.13;;;;;;;12.12;33.77;94860.31;4879436;29;20463;-82
2021/03/08 09:08:29;;;;;;;71.22;36.30;;;;;;;12.17;32.53;94857.00;4924124;29;20052;-81
2021/03/08 09:10:55;;;;;;;69.97;38.33;;;;;;;11.99;33.50;94851.03;4863459;29;20070;-81
2021/03/08 09:13:25;;;;;;;74.70;37.92;;;;;;;12.00;33.37;94851.81;4884741;29;20130;-81
2021/03/08 09:15:51;;;;;;;70.85;37.50;;;;;;;11.86;33.18;94845.34;4910867;29;20524;-82
2021/03/08 09:18:31;;;;;;;60.53;35.47;;;;;;;11.93;33.58;94833.75;4908216;29;20024;-82
2021/03/08 09:21:18;;;;;;;68.35;37.63;;;;;;;11.99;33.34;94830.16;4910755;29;20036;-81
2021/03/08 09:23:44;;;;;;;61.92;38.92;;;;;;;11.84;33.70;94832.56;4915089;29;20036;-81
2021/03/08 09:26:09;;;;;;;66.55;38.53;;;;;;;11.93;33.78;94831.13;4891067;29;20047;-79
2021/03/08 09:28:44;;;;;;;77.63;37.47;;;;;;;12.10;33.97;94825.09;4880154;29;20500;-81
2021/03/08 09:31:30;;;;;;;60.85;35.50;;;;;;;12.20;33.63;94828.66;4898821;29;20044;-81
2021/03/08 09:34:28;;;;;;;74.63;37.10;;;;;;;12.09;33.22;94813.09;4878032;29;20057;-81
2021/03/08 09:36:53;;;;;;;72.20;36.25;;;;;;;12.14;33.25;94815.78;4895788;29;20138;-82
2021/03/08 09:39:18;;;;;;;68.03;36.05;;;;;;;12.25;33.40;94817.50;4928687;29;20507;-82
2021/03/08 09:41:44;;;;;;;80.65;36.63;;;;;;;12.23;33.40;94809.91;4909831;29;20047;-82
2021/03/08 09:44:09;;;;;;;73.38;35.42;;;;;;;12.15;32.82;94806.91;4893708;29;20054;-82
2021/03/08 09:49:10;;;;;;;70.53;35.33;;;;;;;12.08;33.84;94801.09;4903628;26;20056;-80
2021/03/08 09:51:36;;;;;;;62.85;34.25;;;;;;;12.17;33.78;94797.03;4904306;29;20047;-81
2021/03/08 09:54:01;;;;;;;56.03;32.58;;;;;;;11.90;33.49;94805.56;4859914;29;20041;-79
2021/03/08 09:56:27;;;;;;;61.22;30.75;;;;;;;11.70;34.13;94800.00;4891379;29;20036;-80
2021/03/08 09:59:03;;;;;;;54.55;31.27;;;;;;;11.66;34.31;94798.91;4857184;29;20029;-82
2021/03/08 10:01:28;;;;;;;61.65;31.67;;;;;;;11.58;34.20;94787.09;4888187;29;20045;-81
2021/03/08 10:03:54;;;;;;;55.00;30.02;;;;;;;11.50;34.49;94789.31;4887295;29;20045;-81
2021/03/08 10:06:30;;;;;;;58.13;27.70;;;;;;;11.55;35.13;94786.75;4871614;29;20052;-82
2021/03/08 10:08:56;;;;;;;54.10;25.88;;;;;;;11.54;33.90;94779.97;4884520;29;20037;-82
2021/03/08 10:11:25;;;;;;;47.45;28.25;;;;;;;11.31;35.13;94776.53;4901642;29;20489;-80
2021/03/08 10:13:50;;;;;;;52.72;27.40;;;;;;;11.42;35.00;94770.47;4873295;29;20032;-81
2021/03/08 10:16:34;;;;;;;68.25;31.17;;;;;;;11.52;35.29;94763.81;4871002;29;20469;-82
2021/03/08 10:19:09;;;;;;;61.88;31.05;;;;;;;11.74;34.75;94767.28;4867299;29;20033;-81
2021/03/08 10:21:43;;;;;;;49.58;28.60;;;;;;;11.89;35.16;94762.31;4886110;29;20071;-80
2021/03/08 10:24:09;;;;;;;52.17;28.10;;;;;;;11.56;35.07;94762.34;4872885;29;20028;-81
2021/03/08 10:26:35;;;;;;;53.67;26.95;;;;;;;11.37;34.99;94765.16;4888356;29;20039;-82
2021/03/08 10:29:00;;;;;;;47.38;25.48;;;;;;;11.31;36.08;94755.69;4887773;29;20114;-81
2021/03/08 10:31:27;;;;;;;48.55;26.20;;;;;;;11.37;35.92;94759.94;4887526;29;20505;-82
2021/03/08 10:33:59;;;;;;;42.17;25.00;;;;;;;11.58;35.57;94749.84;4872606;29;20041;-81
2021/03/08 10:36:29;;;;;;;47.03;22.63;;;;;;;11.78;35.03;94750.13;4860231;29;20123;-81
2021/03/08 10:38:59;;;;;;;40.97;21.73;;;;;;;11.82;34.46;94746.03;4873132;29;20074;-82
2021/03/08 10:41:26;;;;;;;35.25;17.00;;;;;;;11.48;35.19;94744.50;4859144;29;20041;-81
2021/03/08 10:43:52;;;;;;;38.15;16.92;;;;;;;11.39;35.86;94747.50;4871918;29;20036;-80
2021/03/08 10:46:17;;;;;;;30.02;14.90;;;;;;;11.48;34.93;94734.06;4858726;29;21066;-80
2021/03/08 10:49:09;;;;;;;31.90;17.10;;;;;;;11.40;36.66;94733.47;4888880;29;20036;-81
2021/03/08 10:51:39;;;;;;;14.70;9.87;;;;;;;11.44;33.15;94720.75;4894013;29;20156;-80
2021/03/08 10:54:08;;;;;;;31.25;11.05;;;;;;;11.54;31.57;94722.69;4879606;29;20044;-82
2021/03/08 10:56:35;;;;;;;15.00;6.00;;;;;;;11.59;29.18;94712.38;4895696;29;20033;-80
2021/03/08 10:59:01;;;;;;;17.27;8.77;;;;;;;11.56;28.42;94710.25;4863961;29;20118;-82
2021/03/08 11:01:28;;;;;;;18.25;6.95;;;;;;;11.65;28.33;94693.16;4898739;29;20119;-81
2021/03/08 11:03:53;;;;;;;15.68;7.63;;;;;;;11.66;28.73;94698.13;4900698;29;20036;-81
2021/03/08 11:06:20;;;;;;;10.80;5.80;;;;;;;11.59;27.81;94683.72;4877802;29;20043;-80
2021/03/08 11:09:02;;;;;;;15.32;6.63;;;;;;;11.68;28.38;94684.88;4893282;29;20036;-82
2021/03/08 11:11:31;;;;;;;;;;;;;;;11.84;28.20;94701.50;4884133;29;20040;-81
2021/03/08 11:14:06;;;;;;;24.70;7.45;;;;;;;11.97;28.84;94681.09;4867052;29;19998;-83
2021/03/08 11:16:33;;;;;;;13.77;7.10;;;;;;;12.05;28.87;94676.50;4867146;29;20043;-82
2021/03/08 11:19:25;;;;;;;12.18;6.43;;;;;;;12.13;28.62;94678.66;4881223;29;20033;-82
2021/03/08 11:22:07;;;;;;;12.57;7.60;;;;;;;12.24;28.11;94670.72;4878895;29;20056;-82
2021/03/08 11:24:58;;;;;;;17.38;8.32;;;;;;;12.47;27.46;94664.41;4882859;29;20136;-81
2021/03/08 11:27:56;;;;;;;;;;;;;;;;;;;;;
2021/03/08 11:30:34;;;;;;;14.90;6.95;;;;;;;12.64;27.72;94656.47;4885680;29;20088;-87
2021/03/08 11:33:56;;;;;;;;;;;;;;;;;;;;;
2021/03/08 11:36:34;;;;;;;22.60;8.35;;;;;;;12.75;27.10;94647.69;4814990;29;20138;-85
2021/03/08 11:39:06;;;;;;;13.70;7.65;;;;;;;12.78;27.20;94643.81;4933709;23;20051;-85
2021/03/08 11:44:07;;;;;;;21.63;9.80;;;;;;;12.84;26.55;94611.47;5062411;23;20051;-86
2021/03/08 11:46:33;;;;;;;20.83;12.32;;;;;;;12.97;27.22;94620.72;4971760;28;20037;-86
2021/03/08 11:49:02;;;;;;;44.10;12.00;;;;;;;13.05;26.62;94628.88;4938338;29;20039;-86
2021/03/08 11:51:40;;;;;;;20.55;7.97;;;;;;;13.21;26.65;94622.75;4920509;29;20016;-86
2021/03/08 11:54:06;;;;;;;12.85;5.70;;;;;;;13.25;27.20;94596.91;4930020;29;20134;-86
2021/03/08 11:56:31;;;;;;;9.30;5.15;;;;;;;13.43;27.09;94608.75;4946095;29;20027;-86
2021/03/08 11:58:57;;;;;;;9.70;5.07;;;;;;;13.55;26.77;94617.16;4950286;28;20040;-86
2021/03/08 12:01:23;;;;;;;10.13;4.93;;;;;;;13.49;25.93;94605.09;4933624;29;20071;-86